sensor_id;sensor_type;location;lat;lon;timestamp;P1;durP1;ratioP1;P2;durP2;ratioP2
33074;SDS011;76138;50.768;7.212;2024-03-25T00:00:14;8.70;;;4.20;;
33074;SDS011;76138;50.768;7.212;2024-03-25T00:02:40;15.93;;;5.20;;
33074;SDS011;76138;50.768;7.212;2024-03-25T00:05:07;8.17;;;4.20;;
33074;SDS011;76138;50.768;7.212;2024-03-25T00:07:36;13.00;;;4.27;;
33074;SDS011;76138;50.768;7.212;2024-03-25T00:10:04;10.43;;;3.93;;
33074;SDS011;76138;50.768;7.212;2024-03-25T00:12:33;8.23;;;3.80;;
33074;SDS011;76138;50.768;7.212;2024-03-25T00:15:01;8.23;;;3.67;;
33074;SDS011;76138;50.768;7.212;2024-03-25T00:17:27;8.60;;;3.77;;
33074;SDS011;76138;50.768;7.212;2024-03-25T00:19:52;9.90;;;4.27;;
33074;SDS011;76138;50.768;7.212;2024-03-25T00:22:18;7.63;;;3.63;;
33074;SDS011;76138;50.768;7.212;2024-03-25T00:24:44;16.53;;;4.90;;
33074;SDS011;76138;50.768;7.212;2024-03-25T00:27:10;15.17;;;4.70;;
33074;SDS011;76138;50.768;7.212;2024-03-25T00:29:35;6.80;;;3.23;;
33074;SDS011;76138;50.768;7.212;2024-03-25T00:32:00;10.50;;;4.10;;
33074;SDS011;76138;50.768;7.212;2024-03-25T00:34:26;13.47;;;3.97;;
33074;SDS011;76138;50.768;7.212;2024-03-25T00:36:51;7.40;;;4.20;;
33074;SDS011;76138;50.768;7.212;2024-03-25T00:39:17;11.57;;;4.90;;
33074;SDS011;76138;50.768;7.212;2024-03-25T00:41:42;6.00;;;3.90;;
33074;SDS011;76138;50.768;7.212;2024-03-25T00:44:08;13.40;;;4.50;;
33074;SDS011;76138;50.768;7.212;2024-03-25T00:46:33;11.73;;;3.97;;
33074;SDS011;76138;50.768;7.212;2024-03-25T00:48:58;10.60;;;4.10;;
33074;SDS011;76138;50.768;7.212;2024-03-25T00:51:24;7.37;;;3.37;;
33074;SDS011;76138;50.768;7.212;2024-03-25T00:53:49;9.63;;;5.60;;
33074;SDS011;76138;50.768;7.212;2024-03-25T00:56:14;7.83;;;3.40;;
33074;SDS011;76138;50.768;7.212;2024-03-25T00:58:39;12.03;;;3.83;;
33074;SDS011;76138;50.768;7.212;2024-03-25T01:01:05;8.60;;;4.00;;
33074;SDS011;76138;50.768;7.212;2024-03-25T01:03:30;9.20;;;4.30;;
33074;SDS011;76138;50.768;7.212;2024-03-25T01:05:55;10.97;;;3.97;;
33074;SDS011;76138;50.768;7.212;2024-03-25T01:08:20;7.13;;;4.10;;
33074;SDS011;76138;50.768;7.212;2024-03-25T01:10:46;15.60;;;4.40;;
33074;SDS011;76138;50.768;7.212;2024-03-25T01:13:11;9.37;;;3.93;;
33074;SDS011;76138;50.768;7.212;2024-03-25T01:15:36;12.50;;;4.83;;
33074;SDS011;76138;50.768;7.212;2024-03-25T01:18:01;11.70;;;4.63;;
33074;SDS011;76138;50.768;7.212;2024-03-25T01:20:28;7.67;;;4.10;;
33074;SDS011;76138;50.768;7.212;2024-03-25T01:22:53;7.40;;;3.47;;
33074;SDS011;76138;50.768;7.212;2024-03-25T01:25:19;10.43;;;4.20;;
33074;SDS011;76138;50.768;7.212;2024-03-25T01:27:45;11.40;;;4.27;;
33074;SDS011;76138;50.768;7.212;2024-03-25T01:30:10;12.33;;;4.83;;
33074;SDS011;76138;50.768;7.212;2024-03-25T01:32:36;8.30;;;4.43;;
33074;SDS011;76138;50.768;7.212;2024-03-25T01:35:01;8.20;;;3.63;;
33074;SDS011;76138;50.768;7.212;2024-03-25T01:37:26;8.07;;;3.90;;
33074;SDS011;76138;50.768;7.212;2024-03-25T01:39:52;8.00;;;3.60;;
33074;SDS011;76138;50.768;7.212;2024-03-25T01:42:17;15.80;;;4.70;;
33074;SDS011;76138;50.768;7.212;2024-03-25T01:44:43;8.23;;;3.67;;
33074;SDS011;76138;50.768;7.212;2024-03-25T01:47:08;13.23;;;4.60;;
33074;SDS011;76138;50.768;7.212;2024-03-25T01:49:33;13.23;;;4.50;;
33074;SDS011;76138;50.768;7.212;2024-03-25T01:51:58;16.60;;;5.73;;
33074;SDS011;76138;50.768;7.212;2024-03-25T01:54:24;10.40;;;4.87;;
33074;SDS011;76138;50.768;7.212;2024-03-25T01:56:49;14.00;;;4.50;;
33074;SDS011;76138;50.768;7.212;2024-03-25T01:59:15;13.37;;;4.40;;
33074;SDS011;76138;50.768;7.212;2024-03-25T02:01:42;9.57;;;4.00;;
33074;SDS011;76138;50.768;7.212;2024-03-25T02:04:09;7.07;;;4.07;;
33074;SDS011;76138;50.768;7.212;2024-03-25T02:06:34;12.97;;;5.73;;
33074;SDS011;76138;50.768;7.212;2024-03-25T02:09:01;11.63;;;4.77;;
33074;SDS011;76138;50.768;7.212;2024-03-25T02:11:28;16.50;;;4.80;;
33074;SDS011;76138;50.768;7.212;2024-03-25T02:13:54;9.43;;;3.93;;
33074;SDS011;76138;50.768;7.212;2024-03-25T02:16:19;10.37;;;4.00;;
33074;SDS011;76138;50.768;7.212;2024-03-25T02:18:45;9.47;;;4.73;;
33074;SDS011;76138;50.768;7.212;2024-03-25T02:21:10;7.83;;;3.80;;
33074;SDS011;76138;50.768;7.212;2024-03-25T02:23:35;10.07;;;4.40;;
33074;SDS011;76138;50.768;7.212;2024-03-25T02:26:03;12.13;;;4.37;;
33074;SDS011;76138;50.768;7.212;2024-03-25T02:28:29;14.87;;;4.07;;
33074;SDS011;76138;50.768;7.212;2024-03-25T02:30:54;16.30;;;4.97;;
33074;SDS011;76138;50.768;7.212;2024-03-25T02:33:19;12.83;;;3.80;;
33074;SDS011;76138;50.768;7.212;2024-03-25T02:35:45;12.07;;;3.93;;
33074;SDS011;76138;50.768;7.212;2024-03-25T02:38:10;9.90;;;4.13;;
33074;SDS011;76138;50.768;7.212;2024-03-25T02:40:36;10.50;;;4.00;;
33074;SDS011;76138;50.768;7.212;2024-03-25T02:43:02;10.20;;;4.50;;
33074;SDS011;76138;50.768;7.212;2024-03-25T02:45:27;12.20;;;4.97;;
33074;SDS011;76138;50.768;7.212;2024-03-25T02:47:53;16.87;;;4.70;;
33074;SDS011;76138;50.768;7.212;2024-03-25T02:50:18;14.77;;;4.10;;
33074;SDS011;76138;50.768;7.212;2024-03-25T02:52:44;8.63;;;2.90;;
33074;SDS011;76138;50.768;7.212;2024-03-25T02:55:09;13.60;;;4.63;;
33074;SDS011;76138;50.768;7.212;2024-03-25T02:57:34;13.20;;;4.30;;
33074;SDS011;76138;50.768;7.212;2024-03-25T03:00:00;12.93;;;4.70;;
33074;SDS011;76138;50.768;7.212;2024-03-25T03:02:25;9.30;;;3.77;;
33074;SDS011;76138;50.768;7.212;2024-03-25T03:04:50;11.33;;;4.00;;
33074;SDS011;76138;50.768;7.212;2024-03-25T03:07:16;13.30;;;4.60;;
33074;SDS011;76138;50.768;7.212;2024-03-25T03:09:41;12.37;;;4.00;;
33074;SDS011;76138;50.768;7.212;2024-03-25T03:12:07;11.10;;;4.70;;
33074;SDS011;76138;50.768;7.212;2024-03-25T03:14:33;10.53;;;4.50;;
33074;SDS011;76138;50.768;7.212;2024-03-25T03:16:58;7.27;;;4.37;;
33074;SDS011;76138;50.768;7.212;2024-03-25T03:19:26;13.40;;;4.43;;
33074;SDS011;76138;50.768;7.212;2024-03-25T03:21:52;13.30;;;4.07;;
33074;SDS011;76138;50.768;7.212;2024-03-25T03:24:17;13.80;;;4.17;;
33074;SDS011;76138;50.768;7.212;2024-03-25T03:26:43;11.27;;;4.30;;
33074;SDS011;76138;50.768;7.212;2024-03-25T03:29:09;9.20;;;4.07;;
33074;SDS011;76138;50.768;7.212;2024-03-25T03:31:34;18.37;;;4.87;;
33074;SDS011;76138;50.768;7.212;2024-03-25T03:33:59;9.90;;;3.10;;
33074;SDS011;76138;50.768;7.212;2024-03-25T03:36:24;11.93;;;4.60;;
33074;SDS011;76138;50.768;7.212;2024-03-25T03:38:50;14.10;;;4.80;;
33074;SDS011;76138;50.768;7.212;2024-03-25T03:41:15;10.90;;;3.77;;
33074;SDS011;76138;50.768;7.212;2024-03-25T03:43:41;9.40;;;3.63;;
33074;SDS011;76138;50.768;7.212;2024-03-25T03:46:06;12.40;;;4.40;;
33074;SDS011;76138;50.768;7.212;2024-03-25T03:48:31;9.97;;;3.87;;
33074;SDS011;76138;50.768;7.212;2024-03-25T03:50:56;10.80;;;4.07;;
33074;SDS011;76138;50.768;7.212;2024-03-25T03:53:22;10.37;;;3.80;;
33074;SDS011;76138;50.768;7.212;2024-03-25T03:55:54;15.10;;;4.83;;
33074;SDS011;76138;50.768;7.212;2024-03-25T03:58:23;12.70;;;4.20;;
33074;SDS011;76138;50.768;7.212;2024-03-25T04:00:49;9.03;;;3.60;;
33074;SDS011;76138;50.768;7.212;2024-03-25T04:03:15;10.20;;;4.47;;
33074;SDS011;76138;50.768;7.212;2024-03-25T04:05:40;12.80;;;5.37;;
33074;SDS011;76138;50.768;7.212;2024-03-25T04:08:06;9.53;;;3.73;;
33074;SDS011;76138;50.768;7.212;2024-03-25T04:10:31;15.63;;;4.30;;
33074;SDS011;76138;50.768;7.212;2024-03-25T04:12:56;10.50;;;4.10;;
33074;SDS011;76138;50.768;7.212;2024-03-25T04:15:22;10.20;;;4.00;;
33074;SDS011;76138;50.768;7.212;2024-03-25T04:17:47;8.50;;;4.27;;
33074;SDS011;76138;50.768;7.212;2024-03-25T04:20:14;12.60;;;3.73;;
33074;SDS011;76138;50.768;7.212;2024-03-25T04:22:43;11.80;;;3.67;;
33074;SDS011;76138;50.768;7.212;2024-03-25T04:25:09;17.73;;;4.43;;
33074;SDS011;76138;50.768;7.212;2024-03-25T04:27:39;9.13;;;3.83;;
33074;SDS011;76138;50.768;7.212;2024-03-25T04:30:05;10.07;;;3.90;;
33074;SDS011;76138;50.768;7.212;2024-03-25T04:32:32;10.67;;;4.17;;
33074;SDS011;76138;50.768;7.212;2024-03-25T04:34:57;9.30;;;3.23;;
33074;SDS011;76138;50.768;7.212;2024-03-25T04:37:23;14.67;;;4.30;;
33074;SDS011;76138;50.768;7.212;2024-03-25T04:39:48;19.87;;;4.83;;
33074;SDS011;76138;50.768;7.212;2024-03-25T04:42:13;9.40;;;3.30;;
33074;SDS011;76138;50.768;7.212;2024-03-25T04:44:38;11.30;;;3.90;;
33074;SDS011;76138;50.768;7.212;2024-03-25T04:47:04;10.90;;;4.20;;
33074;SDS011;76138;50.768;7.212;2024-03-25T04:49:30;10.73;;;3.90;;
33074;SDS011;76138;50.768;7.212;2024-03-25T04:51:55;16.10;;;3.80;;
33074;SDS011;76138;50.768;7.212;2024-03-25T04:54:21;11.60;;;3.90;;
33074;SDS011;76138;50.768;7.212;2024-03-25T04:56:46;8.97;;;3.57;;
33074;SDS011;76138;50.768;7.212;2024-03-25T04:59:12;13.57;;;3.43;;
33074;SDS011;76138;50.768;7.212;2024-03-25T05:01:37;7.93;;;4.33;;
33074;SDS011;76138;50.768;7.212;2024-03-25T05:04:03;9.40;;;3.00;;
33074;SDS011;76138;50.768;7.212;2024-03-25T05:06:28;7.73;;;3.80;;
33074;SDS011;76138;50.768;7.212;2024-03-25T05:08:53;8.63;;;4.23;;
33074;SDS011;76138;50.768;7.212;2024-03-25T05:11:19;7.00;;;3.50;;
33074;SDS011;76138;50.768;7.212;2024-03-25T05:13:44;15.33;;;4.63;;
33074;SDS011;76138;50.768;7.212;2024-03-25T05:16:10;10.20;;;3.43;;
33074;SDS011;76138;50.768;7.212;2024-03-25T05:18:36;10.13;;;3.70;;
33074;SDS011;76138;50.768;7.212;2024-03-25T05:21:01;12.13;;;4.37;;
33074;SDS011;76138;50.768;7.212;2024-03-25T05:23:26;11.70;;;3.70;;
33074;SDS011;76138;50.768;7.212;2024-03-25T05:25:52;8.80;;;4.10;;
33074;SDS011;76138;50.768;7.212;2024-03-25T05:28:17;5.87;;;3.23;;
33074;SDS011;76138;50.768;7.212;2024-03-25T05:30:42;11.83;;;5.03;;
33074;SDS011;76138;50.768;7.212;2024-03-25T05:33:07;6.87;;;3.77;;
33074;SDS011;76138;50.768;7.212;2024-03-25T05:35:33;15.10;;;5.40;;
33074;SDS011;76138;50.768;7.212;2024-03-25T05:38:01;9.10;;;3.80;;
33074;SDS011;76138;50.768;7.212;2024-03-25T05:40:28;10.87;;;5.47;;
33074;SDS011;76138;50.768;7.212;2024-03-25T05:42:53;10.33;;;4.13;;
33074;SDS011;76138;50.768;7.212;2024-03-25T05:45:19;8.33;;;3.40;;
33074;SDS011;76138;50.768;7.212;2024-03-25T05:47:44;8.90;;;4.00;;
33074;SDS011;76138;50.768;7.212;2024-03-25T05:50:09;9.17;;;4.23;;
33074;SDS011;76138;50.768;7.212;2024-03-25T05:52:35;12.27;;;4.03;;
33074;SDS011;76138;50.768;7.212;2024-03-25T05:55:01;11.70;;;4.37;;
33074;SDS011;76138;50.768;7.212;2024-03-25T05:57:26;11.50;;;6.20;;
33074;SDS011;76138;50.768;7.212;2024-03-25T05:59:51;9.00;;;5.50;;
33074;SDS011;76138;50.768;7.212;2024-03-25T06:02:17;14.70;;;6.30;;
33074;SDS011;76138;50.768;7.212;2024-03-25T06:04:42;12.50;;;5.40;;
33074;SDS011;76138;50.768;7.212;2024-03-25T06:07:07;7.60;;;4.80;;
33074;SDS011;76138;50.768;7.212;2024-03-25T06:09:33;17.13;;;5.57;;
33074;SDS011;76138;50.768;7.212;2024-03-25T06:11:58;12.80;;;5.43;;
33074;SDS011;76138;50.768;7.212;2024-03-25T06:14:23;8.17;;;4.17;;
33074;SDS011;76138;50.768;7.212;2024-03-25T06:16:49;9.60;;;4.60;;
33074;SDS011;76138;50.768;7.212;2024-03-25T06:19:14;8.43;;;4.77;;
33074;SDS011;76138;50.768;7.212;2024-03-25T06:21:39;16.87;;;3.83;;
33074;SDS011;76138;50.768;7.212;2024-03-25T06:24:05;12.47;;;4.60;;
33074;SDS011;76138;50.768;7.212;2024-03-25T06:26:30;10.20;;;4.13;;
33074;SDS011;76138;50.768;7.212;2024-03-25T06:28:56;10.03;;;3.87;;
33074;SDS011;76138;50.768;7.212;2024-03-25T06:31:21;13.17;;;4.80;;
33074;SDS011;76138;50.768;7.212;2024-03-25T06:34:05;5.27;;;3.53;;
33074;SDS011;76138;50.768;7.212;2024-03-25T06:36:42;8.23;;;4.00;;
33074;SDS011;76138;50.768;7.212;2024-03-25T06:39:08;12.30;;;5.57;;
33074;SDS011;76138;50.768;7.212;2024-03-25T06:41:34;7.93;;;4.83;;
33074;SDS011;76138;50.768;7.212;2024-03-25T06:43:59;10.43;;;5.20;;
33074;SDS011;76138;50.768;7.212;2024-03-25T06:46:24;9.80;;;5.53;;
33074;SDS011;76138;50.768;7.212;2024-03-25T06:48:49;10.83;;;5.27;;
33074;SDS011;76138;50.768;7.212;2024-03-25T06:51:17;9.60;;;3.83;;
33074;SDS011;76138;50.768;7.212;2024-03-25T06:53:42;9.37;;;3.97;;
33074;SDS011;76138;50.768;7.212;2024-03-25T06:56:08;7.00;;;3.50;;
33074;SDS011;76138;50.768;7.212;2024-03-25T06:58:33;12.47;;;4.93;;
33074;SDS011;76138;50.768;7.212;2024-03-25T07:01:03;7.37;;;3.17;;
33074;SDS011;76138;50.768;7.212;2024-03-25T07:03:30;12.13;;;3.60;;
33074;SDS011;76138;50.768;7.212;2024-03-25T07:05:56;17.23;;;5.13;;
33074;SDS011;76138;50.768;7.212;2024-03-25T07:08:22;9.20;;;2.73;;
33074;SDS011;76138;50.768;7.212;2024-03-25T07:10:47;11.93;;;4.17;;
33074;SDS011;76138;50.768;7.212;2024-03-25T07:13:13;9.30;;;3.00;;
33074;SDS011;76138;50.768;7.212;2024-03-25T07:15:39;5.63;;;2.90;;
33074;SDS011;76138;50.768;7.212;2024-03-25T07:18:04;11.90;;;3.70;;
33074;SDS011;76138;50.768;7.212;2024-03-25T07:20:30;12.47;;;4.47;;
33074;SDS011;76138;50.768;7.212;2024-03-25T07:22:56;9.67;;;3.53;;
33074;SDS011;76138;50.768;7.212;2024-03-25T07:25:24;9.40;;;2.90;;
33074;SDS011;76138;50.768;7.212;2024-03-25T07:27:50;7.60;;;4.00;;
33074;SDS011;76138;50.768;7.212;2024-03-25T07:30:16;7.90;;;3.20;;
33074;SDS011;76138;50.768;7.212;2024-03-25T07:32:41;13.60;;;4.40;;
33074;SDS011;76138;50.768;7.212;2024-03-25T07:35:07;9.87;;;3.60;;
33074;SDS011;76138;50.768;7.212;2024-03-25T07:37:34;8.73;;;3.13;;
33074;SDS011;76138;50.768;7.212;2024-03-25T07:40:00;9.50;;;3.00;;
33074;SDS011;76138;50.768;7.212;2024-03-25T07:42:25;7.03;;;2.60;;
33074;SDS011;76138;50.768;7.212;2024-03-25T07:44:50;12.80;;;3.87;;
33074;SDS011;76138;50.768;7.212;2024-03-25T07:47:16;5.30;;;3.00;;
33074;SDS011;76138;50.768;7.212;2024-03-25T07:49:41;5.97;;;3.00;;
33074;SDS011;76138;50.768;7.212;2024-03-25T07:52:06;8.00;;;3.30;;
33074;SDS011;76138;50.768;7.212;2024-03-25T07:54:32;8.13;;;3.10;;
33074;SDS011;76138;50.768;7.212;2024-03-25T07:56:57;8.10;;;3.23;;
33074;SDS011;76138;50.768;7.212;2024-03-25T07:59:23;9.17;;;3.20;;
33074;SDS011;76138;50.768;7.212;2024-03-25T08:01:48;9.47;;;3.90;;
33074;SDS011;76138;50.768;7.212;2024-03-25T08:04:13;7.53;;;3.07;;
33074;SDS011;76138;50.768;7.212;2024-03-25T08:06:38;7.23;;;2.97;;
33074;SDS011;76138;50.768;7.212;2024-03-25T08:09:04;14.93;;;2.80;;
33074;SDS011;76138;50.768;7.212;2024-03-25T08:11:32;10.50;;;3.83;;
33074;SDS011;76138;50.768;7.212;2024-03-25T08:13:58;12.10;;;3.60;;
33074;SDS011;76138;50.768;7.212;2024-03-25T08:16:23;9.67;;;3.23;;
33074;SDS011;76138;50.768;7.212;2024-03-25T08:18:49;6.63;;;3.33;;
33074;SDS011;76138;50.768;7.212;2024-03-25T08:21:15;13.87;;;3.20;;
33074;SDS011;76138;50.768;7.212;2024-03-25T08:23:40;10.60;;;3.80;;
33074;SDS011;76138;50.768;7.212;2024-03-25T08:26:06;8.07;;;2.90;;
33074;SDS011;76138;50.768;7.212;2024-03-25T08:28:32;8.63;;;3.87;;
33074;SDS011;76138;50.768;7.212;2024-03-25T08:30:58;9.13;;;3.23;;
33074;SDS011;76138;50.768;7.212;2024-03-25T08:33:23;11.30;;;4.10;;
33074;SDS011;76138;50.768;7.212;2024-03-25T08:35:48;7.67;;;2.90;;
33074;SDS011;76138;50.768;7.212;2024-03-25T08:38:14;4.30;;;3.03;;
33074;SDS011;76138;50.768;7.212;2024-03-25T08:40:39;6.73;;;3.70;;
33074;SDS011;76138;50.768;7.212;2024-03-25T08:43:05;10.93;;;3.60;;
33074;SDS011;76138;50.768;7.212;2024-03-25T08:45:31;9.93;;;2.97;;
33074;SDS011;76138;50.768;7.212;2024-03-25T08:47:56;7.20;;;2.93;;
33074;SDS011;76138;50.768;7.212;2024-03-25T08:50:22;9.10;;;3.90;;
33074;SDS011;76138;50.768;7.212;2024-03-25T08:52:47;8.53;;;2.80;;
33074;SDS011;76138;50.768;7.212;2024-03-25T08:55:12;5.73;;;3.23;;
33074;SDS011;76138;50.768;7.212;2024-03-25T08:57:38;5.90;;;4.03;;
33074;SDS011;76138;50.768;7.212;2024-03-25T09:00:03;8.80;;;3.10;;
33074;SDS011;76138;50.768;7.212;2024-03-25T09:02:29;8.00;;;3.27;;
33074;SDS011;76138;50.768;7.212;2024-03-25T09:04:54;8.07;;;3.30;;
33074;SDS011;76138;50.768;7.212;2024-03-25T09:07:19;5.90;;;2.73;;
33074;SDS011;76138;50.768;7.212;2024-03-25T09:09:45;6.77;;;3.10;;
33074;SDS011;76138;50.768;7.212;2024-03-25T09:12:28;9.07;;;3.43;;
33074;SDS011;76138;50.768;7.212;2024-03-25T09:14:53;10.23;;;3.27;;
33074;SDS011;76138;50.768;7.212;2024-03-25T09:17:19;8.70;;;3.53;;
33074;SDS011;76138;50.768;7.212;2024-03-25T09:19:44;9.30;;;3.30;;
33074;SDS011;76138;50.768;7.212;2024-03-25T09:22:09;13.53;;;3.03;;
33074;SDS011;76138;50.768;7.212;2024-03-25T09:24:34;5.70;;;2.97;;
33074;SDS011;76138;50.768;7.212;2024-03-25T09:27:00;7.33;;;2.67;;
33074;SDS011;76138;50.768;7.212;2024-03-25T09:29:25;9.03;;;3.03;;
33074;SDS011;76138;50.768;7.212;2024-03-25T09:31:50;6.93;;;2.50;;
33074;SDS011;76138;50.768;7.212;2024-03-25T09:34:15;5.17;;;2.50;;
33074;SDS011;76138;50.768;7.212;2024-03-25T09:36:41;3.57;;;2.40;;
33074;SDS011;76138;50.768;7.212;2024-03-25T09:39:06;5.83;;;2.63;;
33074;SDS011;76138;50.768;7.212;2024-03-25T09:41:32;5.70;;;2.77;;
33074;SDS011;76138;50.768;7.212;2024-03-25T09:44:01;4.43;;;2.50;;
33074;SDS011;76138;50.768;7.212;2024-03-25T09:46:30;8.10;;;3.13;;
33074;SDS011;76138;50.768;7.212;2024-03-25T09:48:55;5.70;;;2.80;;
33074;SDS011;76138;50.768;7.212;2024-03-25T09:51:20;6.13;;;2.80;;
33074;SDS011;76138;50.768;7.212;2024-03-25T09:53:46;3.63;;;2.30;;
33074;SDS011;76138;50.768;7.212;2024-03-25T09:56:12;6.40;;;2.90;;
33074;SDS011;76138;50.768;7.212;2024-03-25T09:58:38;6.30;;;2.60;;
33074;SDS011;76138;50.768;7.212;2024-03-25T10:01:04;4.97;;;2.40;;
33074;SDS011;76138;50.768;7.212;2024-03-25T10:03:29;8.17;;;3.33;;
33074;SDS011;76138;50.768;7.212;2024-03-25T10:05:55;6.13;;;3.50;;
33074;SDS011;76138;50.768;7.212;2024-03-25T10:08:20;8.40;;;3.20;;
33074;SDS011;76138;50.768;7.212;2024-03-25T10:10:46;8.83;;;3.27;;
33074;SDS011;76138;50.768;7.212;2024-03-25T10:13:11;4.80;;;2.50;;
33074;SDS011;76138;50.768;7.212;2024-03-25T10:15:37;5.37;;;2.67;;
33074;SDS011;76138;50.768;7.212;2024-03-25T10:18:02;5.13;;;2.60;;
33074;SDS011;76138;50.768;7.212;2024-03-25T10:20:27;4.23;;;2.60;;
33074;SDS011;76138;50.768;7.212;2024-03-25T10:22:53;5.00;;;2.70;;
33074;SDS011;76138;50.768;7.212;2024-03-25T10:25:19;4.63;;;2.33;;
33074;SDS011;76138;50.768;7.212;2024-03-25T10:27:57;7.00;;;3.00;;
33074;SDS011;76138;50.768;7.212;2024-03-25T10:30:23;5.93;;;2.53;;
33074;SDS011;76138;50.768;7.212;2024-03-25T10:33:02;4.53;;;2.40;;
33074;SDS011;76138;50.768;7.212;2024-03-25T10:35:29;2.37;;;2.07;;
33074;SDS011;76138;50.768;7.212;2024-03-25T10:37:58;6.67;;;3.13;;
33074;SDS011;76138;50.768;7.212;2024-03-25T10:40:26;3.47;;;2.37;;
33074;SDS011;76138;50.768;7.212;2024-03-25T10:43:00;6.57;;;2.73;;
33074;SDS011;76138;50.768;7.212;2024-03-25T10:45:28;3.63;;;1.97;;
33074;SDS011;76138;50.768;7.212;2024-03-25T10:47:56;9.33;;;2.83;;
33074;SDS011;76138;50.768;7.212;2024-03-25T10:50:24;2.87;;;1.60;;
33074;SDS011;76138;50.768;7.212;2024-03-25T10:52:53;3.33;;;1.80;;
33074;SDS011;76138;50.768;7.212;2024-03-25T10:55:18;5.70;;;2.27;;
33074;SDS011;76138;50.768;7.212;2024-03-25T10:57:45;3.33;;;2.13;;
33074;SDS011;76138;50.768;7.212;2024-03-25T11:00:12;4.80;;;2.70;;
33074;SDS011;76138;50.768;7.212;2024-03-25T11:02:40;3.20;;;2.03;;
33074;SDS011;76138;50.768;7.212;2024-03-25T11:05:06;5.53;;;2.27;;
33074;SDS011;76138;50.768;7.212;2024-03-25T11:07:34;4.20;;;2.50;;
33074;SDS011;76138;50.768;7.212;2024-03-25T11:10:06;4.80;;;2.60;;
33074;SDS011;76138;50.768;7.212;2024-03-25T11:12:36;4.30;;;2.70;;
33074;SDS011;76138;50.768;7.212;2024-03-25T11:15:02;5.43;;;2.20;;
33074;SDS011;76138;50.768;7.212;2024-03-25T11:17:29;2.40;;;2.10;;
33074;SDS011;76138;50.768;7.212;2024-03-25T11:19:54;3.90;;;2.20;;
33074;SDS011;76138;50.768;7.212;2024-03-25T11:22:31;3.90;;;2.00;;
33074;SDS011;76138;50.768;7.212;2024-03-25T11:24:57;3.23;;;2.23;;
33074;SDS011;76138;50.768;7.212;2024-03-25T11:27:22;4.47;;;1.87;;
33074;SDS011;76138;50.768;7.212;2024-03-25T11:29:48;5.00;;;2.33;;
33074;SDS011;76138;50.768;7.212;2024-03-25T11:32:13;6.27;;;2.70;;
33074;SDS011;76138;50.768;7.212;2024-03-25T11:34:49;3.77;;;2.40;;
33074;SDS011;76138;50.768;7.212;2024-03-25T11:37:14;5.20;;;2.63;;
33074;SDS011;76138;50.768;7.212;2024-03-25T11:39:40;3.07;;;2.03;;
33074;SDS011;76138;50.768;7.212;2024-03-25T11:42:05;3.57;;;1.90;;
33074;SDS011;76138;50.768;7.212;2024-03-25T11:44:32;3.40;;;2.40;;
33074;SDS011;76138;50.768;7.212;2024-03-25T11:47:02;3.90;;;2.43;;
33074;SDS011;76138;50.768;7.212;2024-03-25T11:49:28;4.60;;;2.60;;
33074;SDS011;76138;50.768;7.212;2024-03-25T11:51:53;5.60;;;2.50;;
33074;SDS011;76138;50.768;7.212;2024-03-25T11:54:18;5.30;;;1.73;;
33074;SDS011;76138;50.768;7.212;2024-03-25T11:56:44;5.70;;;2.33;;
33074;SDS011;76138;50.768;7.212;2024-03-25T11:59:09;6.70;;;2.27;;
33074;SDS011;76138;50.768;7.212;2024-03-25T12:01:36;4.37;;;1.93;;
33074;SDS011;76138;50.768;7.212;2024-03-25T12:04:10;3.10;;;1.97;;
33074;SDS011;76138;50.768;7.212;2024-03-25T12:06:35;3.53;;;2.50;;
33074;SDS011;76138;50.768;7.212;2024-03-25T12:09:01;4.17;;;2.43;;
33074;SDS011;76138;50.768;7.212;2024-03-25T12:11:45;4.50;;;2.50;;
33074;SDS011;76138;50.768;7.212;2024-03-25T12:14:10;5.83;;;1.77;;
33074;SDS011;76138;50.768;7.212;2024-03-25T12:16:35;4.27;;;2.33;;
33074;SDS011;76138;50.768;7.212;2024-03-25T12:19:01;5.93;;;2.40;;
33074;SDS011;76138;50.768;7.212;2024-03-25T12:21:26;3.87;;;2.50;;
33074;SDS011;76138;50.768;7.212;2024-03-25T12:23:53;3.13;;;2.10;;
33074;SDS011;76138;50.768;7.212;2024-03-25T12:26:19;4.60;;;2.13;;
33074;SDS011;76138;50.768;7.212;2024-03-25T12:28:45;2.70;;;1.93;;
33074;SDS011;76138;50.768;7.212;2024-03-25T12:31:10;3.87;;;2.07;;
33074;SDS011;76138;50.768;7.212;2024-03-25T12:33:40;2.70;;;1.87;;
33074;SDS011;76138;50.768;7.212;2024-03-25T12:36:06;4.20;;;2.77;;
33074;SDS011;76138;50.768;7.212;2024-03-25T12:38:31;2.47;;;1.93;;
33074;SDS011;76138;50.768;7.212;2024-03-25T12:41:03;2.80;;;1.90;;
33074;SDS011;76138;50.768;7.212;2024-03-25T12:43:32;2.57;;;2.10;;
33074;SDS011;76138;50.768;7.212;2024-03-25T12:45:59;4.63;;;2.13;;
33074;SDS011;76138;50.768;7.212;2024-03-25T12:48:25;2.40;;;1.50;;
33074;SDS011;76138;50.768;7.212;2024-03-25T12:50:50;2.10;;;1.23;;
33074;SDS011;76138;50.768;7.212;2024-03-25T12:53:17;3.43;;;1.97;;
33074;SDS011;76138;50.768;7.212;2024-03-25T12:55:43;3.60;;;2.10;;
33074;SDS011;76138;50.768;7.212;2024-03-25T12:58:09;4.17;;;1.87;;
33074;SDS011;76138;50.768;7.212;2024-03-25T13:00:34;2.30;;;1.43;;
33074;SDS011;76138;50.768;7.212;2024-03-25T13:03:00;4.83;;;2.80;;
33074;SDS011;76138;50.768;7.212;2024-03-25T13:05:27;2.03;;;1.70;;
33074;SDS011;76138;50.768;7.212;2024-03-25T13:07:53;2.20;;;2.03;;
33074;SDS011;76138;50.768;7.212;2024-03-25T13:10:18;2.27;;;1.63;;
33074;SDS011;76138;50.768;7.212;2024-03-25T13:12:44;3.50;;;1.73;;
33074;SDS011;76138;50.768;7.212;2024-03-25T13:15:09;4.73;;;2.00;;
33074;SDS011;76138;50.768;7.212;2024-03-25T13:17:34;2.43;;;1.50;;
33074;SDS011;76138;50.768;7.212;2024-03-25T13:19:59;3.03;;;2.00;;
33074;SDS011;76138;50.768;7.212;2024-03-25T13:22:25;5.87;;;1.70;;
33074;SDS011;76138;50.768;7.212;2024-03-25T13:24:50;3.57;;;1.60;;
33074;SDS011;76138;50.768;7.212;2024-03-25T13:27:15;3.23;;;1.90;;
33074;SDS011;76138;50.768;7.212;2024-03-25T13:29:41;5.17;;;2.50;;
33074;SDS011;76138;50.768;7.212;2024-03-25T13:32:06;2.47;;;1.57;;
33074;SDS011;76138;50.768;7.212;2024-03-25T13:34:31;2.27;;;1.60;;
33074;SDS011;76138;50.768;7.212;2024-03-25T13:36:56;2.43;;;1.90;;
33074;SDS011;76138;50.768;7.212;2024-03-25T13:39:21;2.50;;;2.03;;
33074;SDS011;76138;50.768;7.212;2024-03-25T13:41:47;2.30;;;1.60;;
33074;SDS011;76138;50.768;7.212;2024-03-25T13:44:13;2.50;;;1.70;;
33074;SDS011;76138;50.768;7.212;2024-03-25T13:46:38;2.77;;;2.30;;
33074;SDS011;76138;50.768;7.212;2024-03-25T13:49:04;2.60;;;1.73;;
33074;SDS011;76138;50.768;7.212;2024-03-25T13:51:29;3.20;;;1.60;;
33074;SDS011;76138;50.768;7.212;2024-03-25T13:53:55;4.17;;;1.83;;
33074;SDS011;76138;50.768;7.212;2024-03-25T13:56:20;3.00;;;1.70;;
33074;SDS011;76138;50.768;7.212;2024-03-25T13:58:45;3.60;;;2.10;;
33074;SDS011;76138;50.768;7.212;2024-03-25T14:01:10;1.63;;;1.40;;
33074;SDS011;76138;50.768;7.212;2024-03-25T14:03:36;3.23;;;1.90;;
33074;SDS011;76138;50.768;7.212;2024-03-25T14:06:01;3.07;;;1.80;;
33074;SDS011;76138;50.768;7.212;2024-03-25T14:08:26;2.93;;;2.03;;
33074;SDS011;76138;50.768;7.212;2024-03-25T14:10:58;5.20;;;1.73;;
33074;SDS011;76138;50.768;7.212;2024-03-25T14:13:24;3.50;;;1.60;;
33074;SDS011;76138;50.768;7.212;2024-03-25T14:15:50;2.90;;;1.87;;
33074;SDS011;76138;50.768;7.212;2024-03-25T14:18:16;1.90;;;1.60;;
33074;SDS011;76138;50.768;7.212;2024-03-25T14:20:41;3.47;;;1.67;;
33074;SDS011;76138;50.768;7.212;2024-03-25T14:23:06;1.40;;;1.30;;
33074;SDS011;76138;50.768;7.212;2024-03-25T14:25:32;4.57;;;1.90;;
33074;SDS011;76138;50.768;7.212;2024-03-25T14:27:57;5.50;;;2.33;;
33074;SDS011;76138;50.768;7.212;2024-03-25T14:30:23;3.30;;;1.83;;
33074;SDS011;76138;50.768;7.212;2024-03-25T14:32:48;6.20;;;2.73;;
33074;SDS011;76138;50.768;7.212;2024-03-25T14:35:13;2.43;;;2.00;;